Time;durP1;ratioP1;P1;durP2;ratioP2;P2;SDS_P1;SDS_P2;PMS_P1;PMS_P2;Temp;Humidity;BMP_temperature;BMP_pressure;BME280_temperature;BME280_humidity;BME280_pressure;Samples;Min_cycle;Max_cycle;Signal;HPM_P1;HPM_P2
2023/06/01 00:01:01;;;;;;;;;10.00;9.00;;;;;22.91;40.78;101416.00;5015613;28;45619;-75
2023/06/01 00:03:29;;;;;;;;;10.00;8.00;;;;;22.74;40.94;101383.75;5016415;28;45535;-77
2023/06/01 00:06:06;;;;;;;;;9.33;8.33;;;;;22.64;41.01;101369.88;4995010;28;45549;-76
2023/06/01 00:08:33;;;;;;;;;8.00;6.33;;;;;22.63;41.43;101360.09;4979056;28;45648;-78
2023/06/01 00:11:05;;;;;;;;;10.67;9.33;;;;;22.72;41.24;101375.78;4997090;28;45630;-81
2023/06/01 00:13:32;;;;;;;;;7.00;7.00;;;;;22.85;41.22;101411.78;4996651;28;45520;-82
2023/06/01 00:16:05;;;;;;;;;9.67;9.33;;;;;22.83;41.49;101397.59;4997820;28;45470;-82
2023/06/01 00:18:32;;;;;;;;;10.00;9.00;;;;;22.52;41.52;101355.19;4997342;28;45374;-76
2023/06/01 00:21:00;;;;;;;;;8.67;7.67;;;;;22.71;41.49;101390.06;4996379;28;46225;-81
2023/06/01 00:23:28;;;;;;;;;10.00;7.33;;;;;22.47;41.64;101346.50;4998454;28;45353;-81
2023/06/01 00:25:56;;;;;;;;;10.00;9.00;;;;;22.70;41.57;101399.00;4988893;28;45452;-79
2023/06/01 00:28:23;;;;;;;;;11.67;10.00;;;;;22.67;41.82;101393.78;5015878;28;45392;-81
2023/06/01 00:30:55;;;;;;;;;15.00;9.33;;;;;22.67;41.87;101395.59;4993241;28;45491;-82
2023/06/01 00:33:23;;;;;;;;;9.00;7.33;;;;;22.57;41.87;101389.72;5008518;28;45653;-80
2023/06/01 00:35:50;;;;;;;;;9.00;8.00;;;;;22.20;42.44;101327.00;5015126;28;45409;-81
2023/06/01 00:38:19;;;;;;;;;12.00;10.00;;;;;22.43;42.92;101384.91;5016806;28;45505;-81
2023/06/01 00:40:50;;;;;;;;;8.67;8.67;;;;;22.26;42.92;101368.63;5016933;28;45943;-82
2023/06/01 00:43:19;;;;;;;;;11.00;9.00;;;;;22.40;42.97;101398.34;5019932;28;45524;-81
2023/06/01 00:45:48;;;;;;;;;11.67;9.67;;;;;22.06;43.00;101347.97;5016165;28;45673;-78
2023/06/01 00:48:17;;;;;;;;;9.67;8.00;;;;;22.39;43.40;101400.13;5014518;28;45564;-82
2023/06/01 00:50:51;;;;;;;;;9.00;9.00;;;;;22.37;43.72;101411.81;5015130;28;45248;-81
2023/06/01 00:53:26;;;;;;;;;9.00;9.00;;;;;22.22;43.65;101376.75;5000210;28;45492;-80
2023/06/01 00:55:54;;;;;;;;;9.67;9.00;;;;;21.84;43.94;101313.22;5017087;28;45459;-80
2023/06/01 00:58:21;;;;;;;;;9.00;9.00;;;;;22.14;44.10;101367.22;5003328;28;45629;-82
2023/06/01 01:00:53;;;;;;;;;14.00;11.67;;;;;22.29;44.49;101404.09;5001186;28;45469;-81
2023/06/01 01:03:21;;;;;;;;;11.33;8.00;;;;;22.17;44.65;101383.16;4998681;28;45441;-82
2023/06/01 01:05:47;;;;;;;;;9.67;9.67;;;;;21.98;44.18;101359.78;5014264;28;45353;-82
2023/06/01 01:08:30;;;;;;;;;13.00;12.00;;;;;22.22;44.70;101394.56;5017628;28;45935;-80
2023/06/01 01:11:20;;;;;;;;;12.33;11.67;;;;;22.16;44.82;101408.06;5004029;28;46771;-79
2023/06/01 01:14:11;;;;;;;;;11.67;10.00;;;;;22.14;44.91;101408.16;5021749;28;45511;-82
2023/06/01 01:16:49;;;;;;;;;14.33;12.00;;;;;21.76;45.96;101348.16;5018885;28;45657;-80
2023/06/01 01:19:42;;;;;;;;;12.67;10.33;;;;;21.75;46.12;101386.41;5018051;28;45817;-81
2023/06/01 01:22:51;;;;;;;;;10.33;8.00;;;;;21.86;46.06;101405.56;5020894;28;46335;-79
2023/06/01 01:25:37;;;;;;;;;12.00;11.00;;;;;21.79;46.30;101391.56;5017918;28;45247;-83
2023/06/01 01:28:42;;;;;;;;;14.67;11.67;;;;;21.87;46.26;101404.63;5016479;28;45416;-81
2023/06/01 01:31:22;;;;;;;;;12.33;10.67;;;;;21.90;46.32;101406.31;5012010;28;45621;-76
2023/06/01 01:33:55;;;;;;;;;15.67;10.33;;;;;21.53;46.86;101357.81;5011017;28;45418;-79
2023/06/01 01:36:25;;;;;;;;;9.00;9.00;;;;;21.80;46.84;101392.44;5003459;28;45717;-77
2023/06/01 01:38:51;;;;;;;;;12.67;11.33;;;;;21.48;46.76;101338.44;4994632;28;45448;-79
2023/06/01 01:41:20;;;;;;;;;11.33;10.33;;;;;21.51;46.87;101343.66;4993892;28;45396;-79
2023/06/01 01:43:57;;;;;;;;;10.67;9.33;;;;;21.65;46.94;101375.19;4979826;28;47590;-82
2023/06/01 01:46:27;;;;;;;;;10.67;10.00;;;;;21.92;47.08;101408.00;4998497;28;45306;-76
2023/06/01 01:48:57;;;;;;;;;8.00;8.00;;;;;21.92;46.90;101409.81;4998497;28;45333;-76
2023/06/01 01:51:36;;;;;;;;;12.00;12.00;;;;;21.93;47.16;101396.44;4980335;28;45787;-78
2023/06/01 01:54:14;;;;;;;;;17.33;11.33;;;;;21.42;47.44;101321.78;4980203;28;47648;-78
2023/06/01 01:56:45;;;;;;;;;11.00;10.67;;;;;21.89;47.51;101391.25;4994006;28;46059;-79
2023/06/01 01:59:15;;;;;;;;;12.00;12.00;;;;;21.68;47.60;101358.19;4994171;28;45580;-79
2023/06/01 02:01:56;;;;;;;;;13.67;12.67;;;;;21.92;47.64;101407.16;4976401;28;46055;-79
2023/06/01 02:04:23;;;;;;;;;12.67;10.67;;;;;21.92;47.91;101408.00;4979031;28;46530;-76
2023/06/01 02:06:50;;;;;;;;;11.33;9.33;;;;;21.48;47.71;101351.75;5013708;28;45575;-77
2023/06/01 02:09:17;;;;;;;;;16.33;14.00;;;;;21.91;47.84;101426.75;5013702;28;45729;-77
2023/06/01 02:11:44;;;;;;;;;11.33;9.33;;;;;21.90;47.89;101406.31;5013433;28;45416;-78
2023/06/01 02:14:19;;;;;;;;;11.67;11.33;;;;;21.60;48.26;101358.47;5013362;28;46017;-77
2023/06/01 02:16:45;;;;;;;;;13.00;10.33;;;;;21.76;47.93;101389.03;5015555;28;45538;-79
2023/06/01 02:19:15;;;;;;;;;12.67;12.00;;;;;21.86;48.44;101400.25;5017142;28;46446;-76
2023/06/01 02:21:42;;;;;;;;;16.67;13.67;;;;;21.01;48.37;101266.28;4993860;28;45476;-81
2023/06/01 02:24:09;;;;;;;;;18.00;14.33;;;;;21.26;48.61;101300.06;5004663;28;46035;-79
2023/06/01 02:26:36;;;;;;;;;13.67;12.67;;;;;21.77;48.82;101400.56;5012509;28;45384;-81
2023/06/01 02:29:04;;;;;;;;;17.00;15.67;;;;;21.18;48.86;101293.19;4997852;28;46115;-79
2023/06/01 02:31:40;;;;;;;;;19.67;15.67;;;;;21.51;48.74;101350.78;5021041;28;45545;-80
2023/06/01 02:34:06;;;;;;;;;16.67;12.67;;;;;21.56;48.99;101365.69;5013950;28;45451;-81
2023/06/01 02:36:31;;;;;;;;;13.00;12.33;;;;;21.63;49.02;101382.34;5014580;28;45330;-80
2023/06/01 02:38:57;;;;;;;;;18.33;17.00;;;;;21.04;49.31;101297.25;4997532;28;45314;-81
2023/06/01 02:41:27;;;;;;;;;14.67;14.33;;;;;21.29;49.49;101343.47;4999756;28;45551;-78
2023/06/01 02:43:59;;;;;;;;;16.33;14.67;;;;;21.42;49.21;101367.06;5014275;28;46371;-78
2023/06/01 02:46:25;;;;;;;;;16.33;14.33;;;;;21.21;49.28;101331.31;4995641;28;45295;-79
2023/06/01 02:49:03;;;;;;;;;17.33;13.00;;;;;21.37;49.19;101373.38;5014324;28;45297;-82
2023/06/01 02:51:33;;;;;;;;;18.33;15.00;;;;;21.28;49.56;101348.84;5015566;28;45575;-80
2023/06/01 02:54:00;;;;;;;;;13.00;12.67;;;;;21.54;49.62;101394.19;5014530;28;46306;-79
2023/06/01 02:56:53;;;;;;;;;14.67;13.33;;;;;21.22;49.56;101330.41;5015883;28;45590;-79
2023/06/01 02:59:19;;;;;;;;;16.00;13.00;;;;;21.51;49.78;101394.28;5017536;28;45459;-80
2023/06/01 03:01:46;;;;;;;;;19.33;16.00;;;;;20.85;50.04;101292.50;4997730;28;45620;-78
2023/06/01 03:04:12;;;;;;;;;15.33;13.67;;;;;21.46;49.85;101390.91;5013736;28;46591;-78
2023/06/01 03:06:39;;;;;;;;;17.67;15.00;;;;;21.25;50.06;101370.28;4992201;28;45492;-81
2023/06/01 03:09:05;;;;;;;;;17.33;15.00;;;;;21.39;50.12;101392.00;4993784;28;45375;-81
2023/06/01 03:11:31;;;;;;;;;19.33;16.67;;;;;21.27;50.19;101374.63;4994491;28;45239;-80
2023/06/01 03:13:59;;;;;;;;;23.33;17.67;;;;;21.29;50.40;101394.09;4997840;28;45436;-79
2023/06/01 03:16:25;;;;;;;;;17.67;16.33;;;;;21.00;50.46;101338.22;4998035;28;45416;-81
2023/06/01 03:18:52;;;;;;;;;19.33;15.67;;;;;20.95;50.33;101333.91;4998459;28;45413;-80
2023/06/01 03:21:17;;;;;;;;;20.67;19.00;;;;;20.55;50.51;101275.69;4998564;28;45555;-80
2023/06/01 03:23:43;;;;;;;;;18.00;16.33;;;;;21.15;50.58;101381.22;4994811;28;46062;-80
2023/06/01 03:26:13;;;;;;;;;18.33;16.33;;;;;20.95;50.51;101349.00;4995485;28;45313;-81
2023/06/01 03:28:39;;;;;;;;;15.67;15.67;;;;;21.23;50.36;101398.75;4998278;28;45435;-80
2023/06/01 03:31:06;;;;;;;;;17.00;15.33;;;;;21.16;50.21;101392.72;4979001;28;45584;-78
2023/06/01 03:33:31;;;;;;;;;16.33;15.00;;;;;21.25;50.44;101405.75;4994046;28;45917;-80
2023/06/01 03:35:58;;;;;;;;;18.67;15.33;;;;;21.18;50.40;101388.22;4996123;28;45519;-76
2023/06/01 03:38:23;;;;;;;;;16.00;15.33;;;;;20.93;50.80;101357.06;4978285;28;45485;-77
2023/06/01 03:40:49;;;;;;;;;16.67;16.67;;;;;21.08;50.84;101392.97;4996998;28;45358;-78
2023/06/01 03:43:15;;;;;;;;;18.33;16.33;;;;;20.69;50.86;101339.16;4996323;28;45689;-75
2023/06/01 03:45:40;;;;;;;;;22.67;17.33;;;;;20.94;51.42;101369.44;4996515;28;45279;-74
2023/06/01 03:48:06;;;;;;;;;24.33;21.67;;;;;21.07;51.25;101399.25;4996361;28;45633;-76
2023/06/01 03:50:32;;;;;;;;;24.33;24.00;;;;;20.87;51.58;101390.97;4996122;28;45630;-76
2023/06/01 03:52:58;;;;;;;;;17.67;15.67;;;;;20.90;51.79;101390.88;4977891;28;47732;-78
2023/06/01 03:55:23;;;;;;;;;18.00;16.00;;;;;20.96;51.46;101402.22;4996117;28;45642;-78
2023/06/01 03:57:50;;;;;;;;;23.00;19.33;;;;;20.95;51.48;101405.81;4979425;28;45495;-77
2023/06/01 04:00:19;;;;;;;;;16.67;16.67;;;;;20.96;51.80;101407.53;4992743;28;45515;-77
2023/06/01 04:02:54;;;;;;;;;22.67;16.67;;;;;20.99;51.56;101414.56;5006152;28;45522;-77
2023/06/01 04:05:22;;;;;;;;;20.67;17.33;;;;;20.79;51.51;101379.72;5006928;28;45399;-77
2023/06/01 04:07:51;;;;;;;;;23.00;18.67;;;;;20.80;51.51;101384.09;5016066;28;45472;-75
2023/06/01 04:10:17;;;;;;;;;19.67;17.00;;;;;20.92;51.71;101410.34;5016134;28;45463;-75
2023/06/01 04:12:45;;;;;;;;;21.00;16.33;;;;;20.71;51.57;101374.59;5015499;28;45711;-76
2023/06/01 04:15:13;;;;;;;;;20.67;18.67;;;;;20.75;51.62;101382.44;5016229;28;45379;-78
2023/06/01 04:17:40;;;;;;;;;21.67;17.67;;;;;20.92;51.29;101413.88;5016406;28;45495;-77
2023/06/01 04:20:11;;;;;;;;;21.00;18.33;;;;;20.44;51.56;101342.53;5019391;28;45518;-77
2023/06/01 04:22:41;;;;;;;;;20.00;17.67;;;;;20.89;51.43;101402.47;5015493;28;45780;-78
2023/06/01 04:25:09;;;;;;;;;20.67;19.67;;;;;20.95;51.67;101420.91;5018363;28;45381;-78
2023/06/01 04:27:38;;;;;;;;;19.33;15.33;;;;;20.54;51.75;101356.44;5000337;28;45413;-77
2023/06/01 04:30:08;;;;;;;;;20.00;15.67;;;;;20.92;51.77;101429.84;5016216;28;45483;-78
2023/06/01 04:32:41;;;;;;;;;22.33;18.33;;;;;20.93;51.84;101422.75;5012179;28;45646;-77
2023/06/01 04:35:08;;;;;;;;;25.67;18.67;;;;;20.93;51.69;101423.63;4991253;28;45441;-78
2023/06/01 04:37:48;;;;;;;;;17.67;17.33;;;;;20.91;51.52;101419.28;5015249;28;45727;-77
2023/06/01 04:40:14;;;;;;;;;17.00;15.67;;;;;20.98;51.47;101426.16;5015748;28;45409;-78
2023/06/01 04:42:48;;;;;;;;;23.33;17.67;;;;;20.99;51.42;101430.53;4993644;28;46356;-78
2023/06/01 04:45:15;;;;;;;;;23.00;17.00;;;;;20.63;51.60;101361.53;4993614;28;45892;-79
2023/06/01 04:47:44;;;;;;;;;25.33;18.67;;;;;20.58;51.47;101363.44;4989577;28;45461;-78
2023/06/01 04:50:11;;;;;;;;;24.67;19.33;;;;;20.98;51.68;101431.47;5013937;28;45690;-77
2023/06/01 04:52:38;;;;;;;;;24.00;20.67;;;;;20.89;51.49;101418.44;5015090;28;45444;-75
2023/06/01 04:55:05;;;;;;;;;21.33;18.00;;;;;21.02;51.64;101440.22;5014654;28;45407;-80
2023/06/01 04:57:38;;;;;;;;;19.67;16.67;;;;;21.05;51.21;101442.81;5015017;28;45450;-77
2023/06/01 05:00:11;;;;;;;;;20.00;17.67;;;;;21.08;51.43;101445.38;5015959;28;45416;-78
2023/06/01 05:02:39;;;;;;;;;20.67;18.33;;;;;21.11;51.38;101455.94;4996659;28;46740;-78
2023/06/01 05:05:06;;;;;;;;;26.67;21.67;;;;;21.13;51.63;101452.31;5014758;28;45364;-78
2023/06/01 05:07:32;;;;;;;;;21.00;18.00;;;;;21.08;51.22;101432.06;5014798;28;45448;-77
2023/06/01 05:09:58;;;;;;;;;20.00;19.00;;;;;21.18;51.08;101438.84;4993737;28;45509;-77
2023/06/01 05:12:24;;;;;;;;;21.00;18.33;;;;;21.12;51.28;101429.25;5013076;28;46187;-77
2023/06/01 05:14:49;;;;;;;;;26.00;22.00;;;;;21.16;51.04;101425.56;5018112;28;45540;-78
2023/06/01 05:17:16;;;;;;;;;27.33;21.33;;;;;21.24;51.01;101441.34;5018573;28;45372;-78
2023/06/01 05:19:41;;;;;;;;;22.00;18.67;;;;;21.23;50.85;101434.25;5010320;28;46038;-77
2023/06/01 05:22:07;;;;;;;;;22.67;20.33;;;;;21.34;50.91;101444.56;5011322;28;46353;-77
2023/06/01 05:24:32;;;;;;;;;19.00;19.00;;;;;20.96;50.66;101380.91;5014172;28;45835;-79
2023/06/01 05:26:58;;;;;;;;;20.67;19.33;;;;;21.32;50.58;101435.75;5014012;28;45478;-77
2023/06/01 05:29:23;;;;;;;;;22.00;20.00;;;;;21.30;50.65;101424.28;5015925;28;45326;-78
2023/06/01 05:31:50;;;;;;;;;23.33;21.33;;;;;21.38;50.44;101440.91;4998883;28;47046;-77
2023/06/01 05:34:16;;;;;;;;;23.33;22.33;;;;;21.34;50.30;101432.13;5014339;28;45403;-78
2023/06/01 05:36:45;;;;;;;;;22.00;18.00;;;;;21.43;50.24;101431.00;5014656;28;45447;-77
2023/06/01 05:39:10;;;;;;;;;21.00;18.67;;;;;21.57;50.27;101455.41;4995868;28;45362;-75
2023/06/01 05:41:36;;;;;;;;;22.67;19.67;;;;;21.46;50.33;101433.56;5014186;28;46164;-78
2023/06/01 05:44:02;;;;;;;;;20.67;19.00;;;;;21.67;49.94;101447.97;5015535;28;45375;-78
2023/06/01 05:46:28;;;;;;;;;32.00;25.00;;;;;21.03;50.23;101343.47;5018634;28;45533;-76
2023/06/01 05:48:55;;;;;;;;;31.33;24.00;;;;;21.40;50.47;101420.41;5016214;28;45494;-77
2023/06/01 05:51:21;;;;;;;;;25.67;23.67;;;;;21.37;50.25;101416.03;5013729;28;45948;-77
2023/06/01 05:53:47;;;;;;;;;20.67;20.67;;;;;21.39;49.97;101410.66;5010122;28;45194;-77
2023/06/01 05:56:13;;;;;;;;;23.33;20.33;;;;;21.43;49.95;101407.00;5013743;28;45570;-77
2023/06/01 05:58:38;;;;;;;;;19.33;18.00;;;;;21.78;49.98;101453.84;5016533;28;45635;-77
2023/06/01 06:01:04;;;;;;;;;28.00;21.00;;;;;21.34;49.68;101372.63;5005047;28;45463;-77
2023/06/01 06:03:30;;;;;;;;;29.33;21.00;;;;;21.62;49.63;101407.28;4993914;28;45803;-77
2023/06/01 06:05:58;;;;;;;;;27.00;21.00;;;;;21.93;49.44;101459.56;5009835;28;45521;-78
2023/06/01 06:08:24;;;;;;;;;30.00;24.00;;;;;21.46;49.47;101374.06;5016901;28;45380;-77
2023/06/01 06:10:49;;;;;;;;;24.00;23.00;;;;;21.75;49.26;101431.72;5012861;28;46032;-77
2023/06/01 06:13:15;;;;;;;;;19.67;18.00;;;;;21.91;49.29;101435.63;5013566;28;45525;-78
2023/06/01 06:15:40;;;;;;;;;26.00;22.67;;;;;22.06;49.18;101450.22;5014121;28;45665;-77
2023/06/01 06:18:06;;;;;;;;;37.00;23.00;;;;;21.99;48.85;101433.53;5014049;28;45495;-76
2023/06/01 06:20:32;;;;;;;;;25.33;20.00;;;;;22.14;48.93;101448.16;5014080;28;45732;-76
2023/06/01 06:22:58;;;;;;;;;38.00;27.67;;;;;21.51;48.87;101351.66;5014457;28;45440;-77
2023/06/01 06:25:23;;;;;;;;;24.67;22.00;;;;;21.85;49.46;101427.81;5016289;28;45491;-76
2023/06/01 06:27:49;;;;;;;;;21.00;19.33;;;;;21.84;49.08;101425.22;4997519;28;45515;-79
2023/06/01 06:30:15;;;;;;;;;23.33;20.67;;;;;22.14;48.74;101457.94;5015044;28;45765;-77
2023/06/01 06:32:40;;;;;;;;;21.67;19.33;;;;;22.01;48.79;101426.38;4998855;28;45464;-77
2023/06/01 06:35:07;;;;;;;;;21.33;18.33;;;;;22.29;48.51;101453.91;5018535;28;45493;-80
2023/06/01 06:37:32;;;;;;;;;19.67;18.67;;;;;22.20;48.15;101437.28;5014589;28;45310;-81
2023/06/01 06:39:58;;;;;;;;;21.67;17.67;;;;;22.07;48.19;101390.63;5014640;28;46753;-81
2023/06/01 06:42:24;;;;;;;;;24.33;20.00;;;;;22.19;47.60;101405.31;5014686;28;45387;-80
2023/06/01 06:44:50;;;;;;;;;28.33;25.00;;;;;22.06;48.06;101364.00;5014215;28;45560;-80
2023/06/01 06:47:19;;;;;;;;;29.00;24.33;;;;;22.33;47.75;101411.06;5014772;28;45416;-81
2023/06/01 06:49:45;;;;;;;;;35.33;29.33;;;;;22.33;47.90;101419.06;5007195;28;46908;-79
2023/06/01 06:52:11;;;;;;;;;24.00;24.00;;;;;22.28;47.61;101410.38;5005235;28;45381;-80
2023/06/01 06:54:40;;;;;;;;;24.33;20.00;;;;;22.58;47.62;101447.53;4997837;28;45406;-79
2023/06/01 06:57:10;;;;;;;;;23.00;21.33;;;;;22.65;47.65;101446.38;4998204;28;45520;-81
2023/06/01 06:59:36;;;;;;;;;21.00;19.67;;;;;22.23;47.48;101382.94;4995737;28;45685;-80
2023/06/01 07:02:03;;;;;;;;;21.33;18.33;;;;;22.64;47.30;101436.63;4994312;28;45333;-80
2023/06/01 07:04:30;;;;;;;;;29.00;22.00;;;;;22.80;47.27;101456.50;4980691;28;45434;-81
2023/06/01 07:06:56;;;;;;;;;24.33;19.33;;;;;22.88;47.01;101447.31;5018247;28;45504;-82
2023/06/01 07:09:23;;;;;;;;;20.00;19.67;;;;;22.81;46.97;101428.84;4998505;28;46926;-79
2023/06/01 07:11:48;;;;;;;;;34.00;27.50;;;;;22.73;46.74;101417.59;4996202;28;45773;-79
2023/06/01 07:14:15;;;;;;;;;22.67;20.33;;;;;22.46;46.72;101359.88;4997953;28;45359;-80
2023/06/01 07:16:42;;;;;;;;;26.33;22.67;;;;;22.69;46.82;101407.09;4992200;28;45386;-80
2023/06/01 07:19:08;;;;;;;;;22.33;20.00;;;;;22.99;46.71;101443.34;5017410;28;46070;-80
2023/06/01 07:21:36;;;;;;;;;23.33;21.00;;;;;22.99;46.67;101443.34;5015847;28;45686;-80
2023/06/01 07:24:02;;;;;;;;;23.33;18.33;;;;;22.49;46.69;101347.28;5016613;28;45600;-80
2023/06/01 07:26:29;;;;;;;;;27.00;24.33;;;;;22.80;46.35;101400.41;5016527;28;45376;-80
2023/06/01 07:28:56;;;;;;;;;22.00;21.00;;;;;22.46;46.52;101336.72;5016335;28;46538;-79
2023/06/01 07:31:22;;;;;;;;;26.33;23.33;;;;;23.21;46.25;101459.41;4998206;28;45597;-79
2023/06/01 07:33:51;;;;;;;;;20.00;17.33;;;;;23.06;46.39;101427.91;5016145;28;45441;-81
2023/06/01 07:36:19;;;;;;;;;25.00;19.67;;;;;23.29;46.25;101454.59;5020472;28;45407;-81
2023/06/01 07:38:45;;;;;;;;;29.67;25.00;;;;;22.48;46.23;101312.66;5002103;28;45540;-79
2023/06/01 07:41:11;;;;;;;;;24.00;19.33;;;;;23.36;46.22;101463.25;5020134;28;45389;-79
2023/06/01 07:43:38;;;;;;;;;26.00;21.33;;;;;23.39;46.26;101467.59;5020412;28;45341;-81
2023/06/01 07:46:04;;;;;;;;;23.33;22.67;;;;;23.34;45.83;101449.06;5017309;28;45356;-80
2023/06/01 07:48:35;;;;;;;;;25.67;23.00;;;;;23.02;45.69;101396.94;5015581;28;45733;-79
2023/06/01 07:51:02;;;;;;;;;26.67;23.67;;;;;23.44;45.46;101461.16;4998888;28;45448;-80
2023/06/01 07:53:28;;;;;;;;;32.33;26.33;;;;;23.41;45.78;101450.56;5018121;28;45441;-79
2023/06/01 07:55:53;;;;;;;;;24.33;23.33;;;;;23.12;45.63;101419.66;5015955;28;45476;-79
2023/06/01 07:58:19;;;;;;;;;25.33;24.33;;;;;23.48;45.59;101475.25;4998770;28;45453;-79
2023/06/01 08:00:45;;;;;;;;;24.00;21.67;;;;;23.13;45.93;101412.53;5020303;28;45440;-80
2023/06/01 08:03:11;;;;;;;;;24.33;19.00;;;;;23.62;46.00;101482.72;5025099;28;45427;-81
2023/06/01 08:05:37;;;;;;;;;25.00;21.00;;;;;23.55;45.71;101458.03;5023234;28;45411;-80
2023/06/01 08:08:03;;;;;;;;;24.67;21.67;;;;;23.36;45.79;101436.53;5016290;28;46241;-82
2023/06/01 08:10:29;;;;;;;;;22.33;18.67;;;;;23.55;45.48;101466.06;5014636;28;45490;-79
2023/06/01 08:12:57;;;;;;;;;23.33;21.00;;;;;23.55;46.00;101452.69;5017604;28;45395;-80
2023/06/01 08:15:26;;;;;;;;;20.00;18.33;;;;;23.20;46.00;101384.63;5015386;28;45857;-80
2023/06/01 08:17:52;;;;;;;;;26.33;21.67;;;;;23.77;45.59;101473.22;5004888;28;47948;-83
2023/06/01 08:20:22;;;;;;;;;28.00;21.00;;;;;23.80;45.63;101451.69;5020539;28;45526;-78
2023/06/01 08:22:49;;;;;;;;;22.33;19.33;;;;;23.82;45.85;101444.47;5020951;28;45470;-85
2023/06/01 08:25:15;;;;;;;;;18.33;14.33;;;;;23.50;45.74;101379.81;5019286;28;45503;-80
2023/06/01 08:27:42;;;;;;;;;20.00;17.33;;;;;23.88;45.49;101439.75;5019796;28;45595;-80
2023/06/01 08:30:08;;;;;;;;;16.33;13.67;;;;;24.19;45.29;101467.00;5019052;28;45450;-81
2023/06/01 08:32:34;;;;;;;;;15.67;14.00;;;;;23.90;45.29;101411.13;5019489;28;45460;-79
2023/06/01 08:35:00;;;;;;;;;23.67;20.00;;;;;24.18;44.98;101446.50;5017900;28;45550;-79
2023/06/01 08:37:26;;;;;;;;;18.33;15.67;;;;;23.73;45.10;101373.50;5008474;28;46145;-81
2023/06/01 08:39:51;;;;;;;;;33.33;28.33;;;;;24.04;44.71;101382.91;5008773;28;45507;-80
2023/06/01 08:42:33;;;;;;;;;28.00;20.00;;;;;24.51;44.59;101461.13;5016592;28;45548;-79
2023/06/01 08:45:04;;;;;;;;;24.67;21.00;;;;;24.56;44.49;101463.63;4999056;28;45429;-75
2023/06/01 08:47:31;;;;;;;;;22.00;22.00;;;;;23.96;44.56;101375.19;5013304;28;46231;-77
2023/06/01 08:49:59;;;;;;;;;27.00;24.33;;;;;24.53;44.94;101458.38;5012421;28;45460;-76
2023/06/01 08:52:28;;;;;;;;;20.00;20.00;;;;;24.39;44.82;101434.00;5017806;28;45466;-77
2023/06/01 08:54:54;;;;;;;;;26.00;23.33;;;;;24.58;44.15;101460.84;5001787;28;45967;-75
2023/06/01 08:57:21;;;;;;;;;22.00;18.00;;;;;24.38;44.78;101419.75;5016818;28;46206;-77
2023/06/01 08:59:47;;;;;;;;;21.00;19.00;;;;;24.47;45.33;101429.22;5012360;28;45826;-75
2023/06/01 09:02:13;;;;;;;;;33.00;28.33;;;;;24.56;44.49;101436.84;5013324;28;45877;-79
2023/06/01 09:04:42;;;;;;;;;26.67;25.33;;;;;24.54;43.80;101446.75;5012082;28;45684;-77
2023/06/01 09:07:08;;;;;;;;;22.33;19.00;;;;;24.21;44.73;101399.09;5012343;28;45982;-77
2023/06/01 09:09:34;;;;;;;;;33.33;28.00;;;;;24.32;44.18;101412.88;5012128;28;45376;-80
2023/06/01 09:12:16;;;;;;;;;26.00;21.33;;;;;24.40;44.62;101417.88;5013062;28;45478;-79
2023/06/01 09:14:41;;;;;;;;;23.67;21.67;;;;;23.82;44.11;101318.75;5014879;28;45465;-80
2023/06/01 09:17:13;;;;;;;;;22.67;21.00;;;;;24.20;43.76;101370.56;5012562;28;45340;-80
2023/06/01 09:19:45;;;;;;;;;21.67;16.67;;;;;24.56;43.96;101434.16;4997882;28;45356;-80
2023/06/01 09:22:12;;;;;;;;;27.67;24.33;;;;;24.74;43.93;101449.34;5012354;28;45495;-78
2023/06/01 09:24:38;;;;;;;;;22.33;21.00;;;;;24.78;43.75;101457.28;5013088;28;45829;-79
2023/06/01 09:27:04;;;;;;;;;23.67;20.00;;;;;24.78;43.79;101442.06;5016009;28;45459;-78
2023/06/01 09:29:30;;;;;;;;;19.00;17.00;;;;;24.78;43.93;101441.19;5012392;28;46100;-77
2023/06/01 09:31:56;;;;;;;;;18.00;18.00;;;;;24.82;43.77;101442.78;5011708;28;45407;-77
2023/06/01 09:34:22;;;;;;;;;0.00;0.00;;;;;24.36;43.61;101351.16;5012542;28;45495;-78
2023/06/01 09:36:50;;;;;;;;;23.67;20.00;;;;;24.87;43.77;101435.41;5011249;28;46069;-76
2023/06/01 09:39:18;;;;;;;;;28.67;27.33;;;;;24.75;43.67;101410.06;5008442;28;45489;-79
2023/06/01 09:42:01;;;;;;;;;20.00;16.67;;;;;24.83;43.73;101413.25;5015478;28;45440;-79
2023/06/01 09:44:32;;;;;;;;;24.33;20.33;;;;;24.94;44.16;101432.38;5013353;28;45908;-76
2023/06/01 09:47:00;;;;;;;;;26.67;21.67;;;;;24.81;43.65;101395.50;4995537;28;45639;-82
2023/06/01 09:49:39;;;;;;;;;22.67;20.33;;;;;24.84;43.34;101398.88;5013336;28;45578;-78
2023/06/01 09:52:04;;;;;;;;;21.33;16.67;;;;;25.02;42.86;101420.41;4994058;28;45378;-81
2023/06/01 09:54:37;;;;;;;;;18.00;17.33;;;;;25.06;42.70;101427.38;4996991;28;45442;-77
2023/06/01 09:57:04;;;;;;;;;23.67;22.00;;;;;24.90;43.12;101403.13;5016249;28;46201;-80
2023/06/01 09:59:38;;;;;;;;;18.33;18.33;;;;;25.12;43.17;101417.22;4998484;28;45436;-80
2023/06/01 10:02:06;;;;;;;;;20.00;17.67;;;;;24.67;42.77;101338.09;5017505;28;45429;-80
2023/06/01 10:04:37;;;;;;;;;23.67;20.67;;;;;25.12;42.47;101402.94;5013303;28;45270;-78
2023/06/01 10:07:03;;;;;;;;;29.00;27.00;;;;;24.74;42.99;101328.81;5011890;28;45538;-80
2023/06/01 10:09:38;;;;;;;;;23.33;21.33;;;;;25.26;42.66;101402.31;5017187;28;46367;-80
2023/06/01 10:12:05;;;;;;;;;23.33;19.67;;;;;25.15;42.44;101392.97;5016902;28;45506;-79
2023/06/01 10:14:31;;;;;;;;;20.67;20.00;;;;;24.98;42.05;101364.25;5015506;28;45428;-74
2023/06/01 10:16:58;;;;;;;;;24.00;18.33;;;;;25.38;42.47;101421.34;5016765;28;45484;-78
2023/06/01 10:19:23;;;;;;;;;27.00;22.00;;;;;25.40;42.10;101407.88;5014008;28;45644;-77
2023/06/01 10:21:50;;;;;;;;;16.67;16.33;;;;;25.46;42.14;101404.00;5015375;28;45728;-82
2023/06/01 10:24:18;;;;;;;;;23.00;23.00;;;;;25.52;42.30;101406.38;5010020;28;45559;-81
2023/06/01 10:27:10;;;;;;;;;25.67;20.67;;;;;25.43;41.75;101369.28;4999485;28;48119;-81
2023/06/01 10:29:37;;;;;;;;;25.00;24.67;;;;;24.84;42.00;101256.03;5013846;28;45363;-81
2023/06/01 10:32:02;;;;;;;;;24.00;22.00;;;;;25.41;41.87;101350.59;5015755;28;45411;-81
2023/06/01 10:34:42;;;;;;;;;21.33;20.00;;;;;25.15;41.53;101292.88;4997903;28;45887;-77
2023/06/01 10:37:08;;;;;;;;;27.00;25.00;;;;;25.64;41.11;101364.66;4995603;28;47494;-81
2023/06/01 10:39:35;;;;;;;;;28.00;25.33;;;;;25.58;41.34;101345.25;5012162;28;45492;-81
2023/06/01 10:42:12;;;;;;;;;28.00;25.00;;;;;25.97;41.13;101394.28;5021080;28;45475;-81
2023/06/01 10:44:40;;;;;;;;;22.33;19.33;;;;;26.06;40.90;101387.56;4999758;28;45552;-79
2023/06/01 10:47:12;;;;;;;;;22.33;19.33;;;;;26.00;41.22;101367.28;5035389;28;45502;-80
2023/06/01 10:49:47;;;;;;;;;30.00;25.00;;;;;26.11;40.05;101383.69;5036977;28;45473;-79
2023/06/01 10:52:28;;;;;;;;;22.67;19.67;;;;;26.15;40.31;101384.38;5037880;28;45442;-79
2023/06/01 10:55:13;;;;;;;;;20.33;20.33;;;;;26.23;40.36;101385.72;5041124;28;45449;-80
2023/06/01 10:57:45;;;;;;;;;18.33;16.67;;;;;26.32;39.88;101383.50;5020633;28;45568;-78
2023/06/01 11:00:17;;;;;;;;;21.67;18.67;;;;;26.40;40.14;101379.44;5036702;28;45530;-80
2023/06/01 11:02:56;;;;;;;;;22.00;17.33;;;;;26.51;39.97;101381.53;5037648;28;45479;-79
2023/06/01 11:05:48;;;;;;;;;21.67;20.00;;;;;26.38;39.91;101353.63;5031279;28;45554;-78
2023/06/01 11:08:17;;;;;;;;;20.33;17.33;;;;;26.64;39.63;101373.69;4999651;28;46371;-79
2023/06/01 11:10:52;;;;;;;;;22.33;20.00;;;;;26.75;39.31;101375.81;5016535;28;45431;-80
2023/06/01 11:13:21;;;;;;;;;23.00;22.00;;;;;26.82;39.26;101370.00;5016721;28;45347;-79
2023/06/01 11:16:09;;;;;;;;;16.67;16.67;;;;;26.96;38.77;101371.06;5017255;28;45759;-78
2023/06/01 11:19:00;;;;;;;;;18.00;18.00;;;;;26.75;38.64;101327.44;5016506;28;45513;-80
2023/06/01 11:21:37;;;;;;;;;24.33;21.33;;;;;27.11;38.00;101372.00;5016604;28;45431;-80